Weather reports worldwide

Advertisment
Kahler Asten, Germany (10427): temperature & dewpoint: 20.09.2020 13:00:00 - 26.09.2020 13:00:00 (CEST)Kahler Asten, Germany (10427): temperature 5cm & temperature -5cm: 20.09.2020 13:00:00 - 26.09.2020 13:00:00 (CEST)Kahler Asten, Germany (10427): temperature -20cm & temperature -100cm: 20.09.2020 13:00:00 - 26.09.2020 13:00:00 (CEST)Kahler Asten, Germany (10427): wind speed & gusts: 20.09.2020 13:00:00 - 26.09.2020 13:00:00 (CEST)Kahler Asten, Germany (10427): wind direction: 20.09.2020 13:00:00 - 26.09.2020 13:00:00 (CEST)Kahler Asten, Germany (10427): visibility: 20.09.2020 13:00:00 - 26.09.2020 13:00:00 (CEST)Kahler Asten, Germany (10427): sunshine duration: 20.09.2020 13:00:00 - 26.09.2020 13:00:00 (CEST)Kahler Asten, Germany (10427): precipitation: 20.09.2020 13:00:00 - 26.09.2020 13:00:00 (CEST)
Date & Time tt [°C] td [°C] tt 5cm [°C] tt -5cm [°C] tt -20cm [°C] tt -100cm [°C] ff [km/h] ff [kn] fx [km/h] fx [kn] dd vv [km] sd [min] rr [mm]
26.09.2020 13:00:00 5,5 5,2 6,6 10,1 9,9 13,4 5 3 10 6 ENE 0,1 0 0,2
26.09.2020 12:00:00 5,4 5,0 6,3 10,1 9,8 13,4 6 4 10 6 E 1,1 0 0,4
26.09.2020 11:00:00 5,1 4,7 6,4 9,1 9,7 13,4 5 3 17 9 S 1,4 0 0,0
26.09.2020 10:00:00 4,2 3,9 4,7 7,5 9,7 13,4 13 7 16 9 S 0,2 0 0,0
26.09.2020 09:00:00 4,0 3,8 4,4 7,0 9,8 13,4 12 6 26 14 SSW 0,3 0 0,0
26.09.2020 08:00:00 4,0 3,7 4,1 6,9 9,9 13,4 18 10 31 17 S 0,2 0 0,1
26.09.2020 07:00:00 4,2 3,9 4,2 7,0 10,0 13,4 24 13 36 20 SSW 0,3 0 0,1
26.09.2020 06:00:00 4,4 4,0 4,4 7,1 10,1 13,4 24 13 32 18 SSW 0,2 0 0,1
26.09.2020 05:00:00 4,5 4,2 4,6 7,2 10,2 13,4 18 10 33 18 SSW 0,5 0 0,1
26.09.2020 04:00:00 4,5 4,1 4,6 7,2 10,3 13,5 22 12 32 17 SSW 0,4 0 0,1
26.09.2020 03:00:00 4,4 4,0 4,5 7,3 10,5 13,5 21 11 40 22 SSW 0,2 0 0,1
26.09.2020 02:00:00 4,4 4,0 4,4 7,4 10,6 13,5 23 12 35 19 SSW 0,2 0 0,0
26.09.2020 01:00:00 4,4 3,9 4,4 7,5 10,8 13,5 23 13 36 20 SSW 13 0 0,0
26.09.2020 00:00:00 4,3 3,8 4,2 7,7 11,0 13,5 24 13 36 19 SW 17 0 0,0
25.09.2020 23:00:00 4,6 4,1 4,5 8,0 11,1 13,5 22 12 37 20 SW 12 0 0,0
25.09.2020 22:00:00 4,8 4,4 4,8 8,2 11,3 13,5 20 11 40 22 SW 0,7 0 0,7
25.09.2020 21:00:00 5,4 3,8 4,9 8,4 11,5 13,5 22 12 32 17 WSW 7 0 0,1
25.09.2020 20:00:00 6,0 3,7 5,4 8,8 11,6 13,5 18 10 30 16 SSW 63 1 0,0
25.09.2020 19:00:00 6,6 3,4 6,3 9,4 11,8 13,5 19 10 33 18 SSW 75 5 0,0
25.09.2020 18:00:00 6,8 3,2 6,8 9,9 11,8 13,5 22 12 32 17 SSW 74 0 0,0
25.09.2020 17:00:00 6,9 3,8 7,4 10,1 11,9 13,5 21 11 35 19 SSW 62 0 0,0
25.09.2020 16:00:00 6,7 3,0 7,0 10,5 11,9 13,5 22 12 41 22 SSW 68 0 0,0
25.09.2020 15:00:00 7,3 3,3 8,6 10,1 12,0 13,5 23 13 45 24 SSW 72 1 0,0
25.09.2020 14:00:00 6,3 2,9 6,8 10,2 12,0 13,5 28 15 41 22 SSW 75 0 0,0
25.09.2020 13:00:00 6,0 3,0 6,6 10,5 12,1 13,5 26 14 39 21 SSW 56 0 0,0
25.09.2020 12:00:00 5,7 2,7 6,1 10,9 12,1 13,5 25 14 45 24 SW 72 0 0,0
25.09.2020 11:00:00 5,5 3,6 6,5 10,9 12,1 13,5 26 14 46 25 SW 51 29 0,0
25.09.2020 10:00:00 5,1 2,8 5,2 9,8 12,2 13,6 26 14 41 22 WSW 62 17 0,0
25.09.2020 09:00:00 5,6 4,8 6,5 9,3 12,4 13,6 28 15 40 21 SW 64 6 0,0
25.09.2020 08:00:00 5,8 5,4 5,9 9,3 12,7 13,6 18 10 38 21 SW 12 0 0,0
25.09.2020 07:00:00 6,2 5,6 5,9 9,9 12,9 13,6 29 15 39 21 SW 42 0 0,3
25.09.2020 06:00:00 6,9 6,5 6,9 10,4 13,1 13,6 23 12 35 19 WSW 0,3 0 0,3
25.09.2020 05:00:00 7,1 6,4 6,9 11,1 13,2 13,6 22 12 49 26 WSW 26 0 2,2
25.09.2020 04:00:00 9,7 8,7 9,6 11,5 13,3 13,6 28 15 41 22 SSW 33 0 0,0
25.09.2020 03:00:00 9,8 8,9 9,7 11,5 13,5 13,6 23 13 40 22 S 25 0 0,0
25.09.2020 02:00:00 10,0 8,8 9,9 11,6 13,6 13,6 28 15 40 22 S 42 0 0,0
25.09.2020 01:00:00 10,0 8,6 9,9 11,6 13,8 13,6 26 14 42 23 SSW 52 0 0,0
25.09.2020 00:00:00 10,1 7,9 9,6 11,7 14,0 13,6 26 14 41 22 S 75 0 0,0
24.09.2020 23:00:00 10,4 7,7 9,9 12,0 14,3 13,6 21 11 41 22 SSW 75 0 0,0
24.09.2020 22:00:00 10,7 7,7 10,2 12,3 14,5 13,6 22 12 49 26 S 74 0 0,0
24.09.2020 21:00:00 11,0 6,6 10,4 12,7 14,8 13,6 27 14 37 20 S 72 0 0,0
24.09.2020 20:00:00 11,6 5,4 10,8 13,4 15,0 13,6 22 12 37 20 S 75 0 0,0
24.09.2020 19:00:00 12,1 5,0 11,4 14,4 15,1 13,6 27 14 37 20 S 75 0 0,0
24.09.2020 18:00:00 12,5 4,7 12,0 15,6 15,1 13,6 31 17 44 24 S 75 13 0,0
24.09.2020 17:00:00 13,4 5,0 14,2 16,6 15,0 13,6 24 13 47 26 SSW 64 56 0,0
24.09.2020 16:00:00 13,0 4,0 14,2 16,9 14,8 13,6 27 15 40 22 SSW 73 24 0,0
24.09.2020 15:00:00 12,3 2,9 13,5 17,7 14,4 13,6 27 15 45 24 SW 75 54 0,0
24.09.2020 14:00:00 12,6 4,5 14,8 17,1 14,1 13,6 25 13 43 23 SSW 53 60 0,0
24.09.2020 13:00:00 11,1 4,7 13,1 15,6 13,9 13,6 29 16 44 24 SW 64 49 0,0
24.09.2020 12:00:00 9,6 6,5 11,0 14,9 13,8 13,6 21 12 43 23 SW 69 37 0,0
24.09.2020 11:00:00 8,5 6,4 9,8 13,0 13,9 13,6 29 16 44 24 WSW 66 19 0,0
24.09.2020 10:00:00 7,5 6,6 8,0 11,8 14,1 13,6 22 12 49 26 WSW 24 7 0,0
24.09.2020 09:00:00 7,6 7,2 8,1 11,2 14,3 13,5 28 15 49 26 WSW 0,5 0 0,0
24.09.2020 08:00:00 7,8 7,3 7,9 11,6 14,6 13,5 30 16 52 28 W 5 0 0,1
24.09.2020 07:00:00 9,1 8,6 9,1 12,5 14,8 13,5 35 19 72 39 W 2,5 0 1,4
24.09.2020 06:00:00 11,8 11,4 11,7 13,2 14,9 13,5 28 15 50 27 SW 7 0 0,2
24.09.2020 05:00:00 11,7 11,3 11,6 13,2 15,1 13,5 30 16 44 24 SSW 0,1 0 2,0
24.09.2020 04:00:00 12,0 10,9 11,5 13,4 15,3 13,5 29 15 56 30 S 21 0 0,5
24.09.2020 03:00:00 13,0 10,0 12,5 13,4 15,5 13,5 35 19 50 27 S 48 0 0,0
24.09.2020 02:00:00 12,7 9,7 11,7 13,7 15,8 13,5 34 18 48 26 S 50 0 0,0
24.09.2020 01:00:00 12,9 9,6 12,1 14,2 16,0 13,5 30 16 48 26 S 50 0 0,0
24.09.2020 00:00:00 13,4 9,4 12,5 14,6 16,3 13,5 28 15 41 22 SSW 70 0 0,0
23.09.2020 23:00:00 13,7 9,2 12,8 15,0 16,6 13,5 32 17 42 23 SSW 75 0 0,0
23.09.2020 22:00:00 14,0 8,8 13,1 15,5 16,9 13,5 27 15 42 23 SSW 69 0 0,0
23.09.2020 21:00:00 14,6 8,3 13,5 16,2 17,2 13,5 24 13 37 20 SSW 57 0 0,0
23.09.2020 20:00:00 14,8 8,1 13,5 17,1 17,4 13,5 19 10 32 17 SSW 60 0 0,0
23.09.2020 19:00:00 15,7 8,0 14,4 18,8 17,5 13,5 21 11 36 19 SSW 61 36 0,0
23.09.2020 18:00:00 17,6 7,4 17,0 20,4 17,4 13,5 21 11 43 23 SSW 59 54 0,0
23.09.2020 17:00:00 18,1 6,1 19,6 21,5 17,2 13,5 28 15 45 24 SSW 60 19 0,0
23.09.2020 16:00:00 19,0 6,3 19,9 22,6 16,8 13,5 22 12 38 21 SSW 59 38 0,0
23.09.2020 15:00:00 19,2 5,8 21,6 23,7 16,2 13,5 26 14 40 21 SSW 73 57 0,0
23.09.2020 14:00:00 18,1 6,4 20,6 23,0 15,6 13,5 22 12 31 17 SW 60 38 0,0
23.09.2020 13:00:00 18,3 7,7 21,4 22,6 15,0 13,5 19 10 29 16 WSW 51 60 0,0
23.09.2020 12:00:00 17,1 6,2 20,6 20,2 14,6 13,5 16 9 29 16 W 33 60 0,0
23.09.2020 11:00:00 15,8 7,1 18,2 17,8 14,3 13,5 15 8 22 12 W 21 60 0,0
23.09.2020 10:00:00 14,3 7,0 16,4 15,1 14,3 13,5 12 7 21 11 W 19 60 0,0
23.09.2020 09:00:00 13,3 6,2 13,9 12,6 14,4 13,5 16 9 24 13 W 29 36 0,0
23.09.2020 08:00:00 13,4 5,6 11,3 12,1 14,6 13,5 17 9 24 13 WSW 32 0 0,0
23.09.2020 07:00:00 13,1 6,2 10,7 12,7 14,8 13,5 18 10 25 14 W 24 0 0,0
23.09.2020 06:00:00 13,9 6,3 12,2 13,0 15,0 13,5 19 11 24 13 WSW 27 0 0,0
23.09.2020 05:00:00 14,6 6,3 13,2 13,4 15,1 13,5 18 10 25 13 WSW 40 0 0,0
23.09.2020 04:00:00 15,1 6,2 13,9 13,2 15,4 13,5 19 10 25 14 WSW 50 0 0,0
23.09.2020 03:00:00 15,0 6,1 12,6 13,0 15,6 13,5 18 10 24 13 WSW 59 0 0,0
23.09.2020 02:00:00 15,2 5,9 12,9 13,4 15,9 13,5 18 10 24 13 WSW 67 0 0,0
23.09.2020 01:00:00 15,6 6,6 13,5 14,1 16,2 13,5 16 9 30 16 SW 65 0 0,0
23.09.2020 00:00:00 16,6 8,0 15,2 14,5 16,6 13,5 25 13 32 17 SSW 55 0 0,0
22.09.2020 23:00:00 16,1 6,2 13,5 14,7 17,0 13,5 16 9 21 12 S 58 0 0,0
22.09.2020 22:00:00 15,8 7,3 10,5 15,5 17,4 13,5 11 6 14 7 SSE 55 0 0,0
22.09.2020 21:00:00 16,1 8,0 10,2 16,6 17,8 13,5 4 2 13 7 ESE 51 0 0,0
22.09.2020 20:00:00 17,2 4,9 13,0 18,3 18,0 13,5 12 7 17 9 W 66 11 0,0
22.09.2020 19:00:00 19,1 5,3 16,6 20,5 18,0 13,5 10 6 25 13 WSW 65 60 0,0
22.09.2020 18:00:00 20,5 6,3 21,1 22,1 17,8 13,5 16 9 29 15 SSW 75 45 0,0
22.09.2020 17:00:00 21,1 5,6 22,4 23,7 17,4 13,5 16 8 30 16 SSW 67 60 0,0
22.09.2020 16:00:00 21,3 6,7 23,5 24,2 16,8 13,5 20 11 31 17 S 68 60 0,0
22.09.2020 15:00:00 21,6 6,2 24,5 25,2 16,0 13,5 15 8 32 17 SSW 64 60 0,0
22.09.2020 14:00:00 20,7 6,7 23,8 24,7 15,3 13,5 22 12 36 19 S 56 60 0,0
22.09.2020 13:00:00 20,0 6,2 22,8 23,0 14,6 13,5 20 11 29 15 S 61 60 0,0
22.09.2020 12:00:00 19,6 6,5 22,4 20,7 14,0 13,5 18 10 25 13 SSW 60 60 0,0
22.09.2020 11:00:00 18,5 6,6 20,5 18,0 13,6 13,5 15 8 21 12 SSW 65 60 0,0
22.09.2020 10:00:00 17,6 6,1 19,1 15,0 13,5 13,5 8 4 12 6 SSW 75 60 0,0
22.09.2020 09:00:00 16,0 5,7 16,4 12,0 13,6 13,5 9 5 13 7 WSW 55 60 0,0
22.09.2020 08:00:00 14,6 4,8 11,0 10,5 13,9 13,5 13 7 18 10 W 70 12 0,0
22.09.2020 07:00:00 14,2 5,0 10,6 10,7 14,1 13,5 16 8 19 10 W 62 0 0,0
22.09.2020 06:00:00 13,8 5,2 9,6 11,0 14,4 13,5 17 9 19 10 W 68 0 0,0
22.09.2020 05:00:00 14,3 4,9 10,1 11,4 14,7 13,5 16 8 21 12 WSW 75 0 0,0
22.09.2020 04:00:00 14,0 5,6 9,8 11,8 15,0 13,5 16 9 21 11 WSW 73 0 0,0
22.09.2020 03:00:00 14,6 5,6 12,2 12,3 15,3 13,5 17 9 21 12 SSW 60 0 0,0
22.09.2020 02:00:00 14,8 5,6 12,0 12,8 15,6 13,5 19 11 21 12 SSW 67 0 0,0
22.09.2020 01:00:00 14,9 5,9 12,7 13,1 16,0 13,5 16 9 19 11 SSW 68 0 0,0
22.09.2020 00:00:00 15,2 5,4 11,9 13,7 16,4 13,5 16 9 18 10 S 58 0 0,0
21.09.2020 23:00:00 15,6 5,3 11,6 14,4 16,8 13,5 16 9 18 10 S 65 0 0,0
21.09.2020 22:00:00 15,4 5,0 12,9 15,4 17,2 13,5 16 8 18 10 S 64 0 0,0
21.09.2020 21:00:00 15,8 5,0 13,0 16,6 17,5 13,5 16 8 20 11 SSE 73 0 0,0
21.09.2020 20:00:00 16,7 5,0 13,8 18,2 17,7 13,5 15 8 17 9 SSE 63 14 0,0
21.09.2020 19:00:00 18,1 5,0 16,4 20,3 17,7 13,5 13 7 18 10 SE 75 60 0,0
21.09.2020 18:00:00 19,6 5,3 20,5 22,4 17,4 13,5 9 5 17 9 SE 71 60 0,0
21.09.2020 17:00:00 20,6 4,9 22,3 23,6 17,0 13,5 11 6 19 11 S 59 60 0,0
21.09.2020 16:00:00 20,5 4,7 23,4 24,1 16,3 13,5 8 4 18 10 S 75 60 0,0
21.09.2020 15:00:00 19,9 5,0 23,6 25,1 15,5 13,5 8 4 22 12 SSE 53 60 0,0
21.09.2020 14:00:00 18,7 4,6 22,2 24,3 14,7 13,5 11 6 23 12 SSE 43 60 0,0
21.09.2020 13:00:00 18,5 5,0 22,3 22,1 14,0 13,5 16 8 28 15 ESE 57 60 0,0
21.09.2020 12:00:00 17,1 4,8 20,3 19,6 13,5 13,5 16 9 30 16 ESE 54 60 0,0
21.09.2020 11:00:00 16,7 5,0 18,9 17,0 13,1 13,5 15 8 27 15 ESE 59 60 0,0
21.09.2020 10:00:00 15,7 4,9 17,1 14,1 13,0 13,5 16 9 22 12 ESE 67 60 0,0
21.09.2020 09:00:00 14,1 3,7 14,3 11,3 13,1 13,5 16 8 22 12 ESE 67 60 0,0
21.09.2020 08:00:00 12,7 3,4 10,5 9,8 13,4 13,5 15 8 23 12 ESE 68 17 0,0
21.09.2020 07:00:00 12,4 3,4 9,7 10,1 13,6 13,5 19 10 24 13 ESE 63 0 0,0
21.09.2020 06:00:00 12,5 3,9 9,7 10,5 13,9 13,5 20 11 24 13 ESE 62 0 0,0
21.09.2020 05:00:00 12,3 4,2 8,9 10,9 14,2 13,5 16 9 25 13 E 63 0 0,0
21.09.2020 04:00:00 12,6 4,7 10,4 11,3 14,5 13,5 19 10 27 15 ESE 72 0 0,0
21.09.2020 03:00:00 12,0 3,7 9,3 11,6 14,8 13,6 19 10 31 17 ESE 73 0 0,0
21.09.2020 02:00:00 12,4 3,3 10,3 12,1 15,1 13,6 20 11 32 17 E 62 0 0,0
21.09.2020 01:00:00 13,1 3,0 11,0 12,7 15,5 13,6 23 12 40 22 ESE 69 0 0,0
21.09.2020 00:00:00 13,6 3,2 11,7 13,2 15,8 13,6 25 13 42 23 E 74 0 0,0
20.09.2020 23:00:00 13,6 3,5 11,9 13,8 16,2 13,6 24 13 41 22 E 65 0 0,0
20.09.2020 22:00:00 13,7 4,0 12,0 14,5 16,6 13,6 21 11 37 20 E 71 0 0,0
20.09.2020 21:00:00 13,9 3,8 11,7 15,5 17,0 13,6 23 12 33 18 ENE 67 0 0,0
20.09.2020 20:00:00 14,7 3,4 12,4 17,0 17,3 13,6 21 11 29 16 ENE 75 18 0,0
20.09.2020 19:00:00 16,2 3,1 14,3 19,1 17,3 13,6 16 9 25 13 ENE 75 60 0,0
20.09.2020 18:00:00 17,8 3,1 18,6 21,4 17,1 13,6 16 9 27 14 ENE 75 60 0,0
20.09.2020 17:00:00 18,9 3,0 21,1 22,9 16,6 13,6 16 9 24 13 NE 58 60 0,0
20.09.2020 16:00:00 19,2 2,8 23,1 23,5 15,9 13,6 12 6 22 12 ENE 48 60 0,0
20.09.2020 15:00:00 18,8 3,2 23,7 24,9 15,1 13,6 13 7 24 13 ENE 75 60 0,0
20.09.2020 14:00:00 18,4 4,3 22,2 24,0 14,3 13,6 14 7 27 14 ESE 55 60 0,0
20.09.2020 13:00:00 17,9 4,0 21,3 21,8 13,6 13,6 16 8 29 15 ESE 56 60 0,0

tt = temperature
td = dewpoint
tt 5cm = temperature 5cm
tt -5cm = temperature -5cm
tt -20cm = temperature -20cm
tt -100cm = temperature -100cm
ff = wind speed
fx = gusts
dd = wind direction
vv = visibility
sd = sunshine duration
rr = precipitation

Next stations